sensor_id;sensor_type;location;lat;lon;timestamp;pressure;altitude;pressure_sealevel;temperature
47484;BMP280;54076;50.322;18.650;2023-06-01T00:02:50;98050.36;;;8.19
47484;BMP280;54076;50.322;18.650;2023-06-01T00:07:51;98050.59;;;8.01
47484;BMP280;54076;50.322;18.650;2023-06-01T00:12:53;98046.64;;;7.92
47484;BMP280;54076;50.322;18.650;2023-06-01T00:17:53;98049.70;;;7.91
47484;BMP280;54076;50.322;18.650;2023-06-01T00:22:56;98050.64;;;7.65
47484;BMP280;54076;50.322;18.650;2023-06-01T00:27:59;98050.35;;;7.56
47484;BMP280;54076;50.322;18.650;2023-06-01T00:33:03;98042.67;;;7.38
47484;BMP280;54076;50.322;18.650;2023-06-01T00:38:04;98041.39;;;7.22
47484;BMP280;54076;50.322;18.650;2023-06-01T00:43:07;98046.13;;;7.12
47484;BMP280;54076;50.322;18.650;2023-06-01T00:48:08;98043.33;;;7.04
47484;BMP280;54076;50.322;18.650;2023-06-01T00:53:17;98045.58;;;7.14
47484;BMP280;54076;50.322;18.650;2023-06-01T00:58:19;98038.55;;;6.92
47484;BMP280;54076;50.322;18.650;2023-06-01T01:03:21;98035.09;;;6.81
47484;BMP280;54076;50.322;18.650;2023-06-01T01:08:37;98034.50;;;6.82
47484;BMP280;54076;50.322;18.650;2023-06-01T01:13:48;98028.30;;;6.77
47484;BMP280;54076;50.322;18.650;2023-06-01T01:19:28;98024.00;;;6.64
47484;BMP280;54076;50.322;18.650;2023-06-01T01:30:02;98017.61;;;6.55
47484;BMP280;54076;50.322;18.650;2023-06-01T01:35:08;98011.86;;;6.37
47484;BMP280;54076;50.322;18.650;2023-06-01T01:40:10;98015.86;;;6.32
47484;BMP280;54076;50.322;18.650;2023-06-01T01:45:13;98018.70;;;6.14
47484;BMP280;54076;50.322;18.650;2023-06-01T01:50:18;98017.73;;;6.12
47484;BMP280;54076;50.322;18.650;2023-06-01T01:55:23;98011.45;;;6.41
47484;BMP280;54076;50.322;18.650;2023-06-01T02:00:25;98016.20;;;7.16
47484;BMP280;54076;50.322;18.650;2023-06-01T02:05:26;98012.54;;;6.94
47484;BMP280;54076;50.322;18.650;2023-06-01T02:10:27;98009.42;;;6.84
47484;BMP280;54076;50.322;18.650;2023-06-01T02:15:28;98002.41;;;6.73
47484;BMP280;54076;50.322;18.650;2023-06-01T02:20:29;97996.96;;;6.64
47484;BMP280;54076;50.322;18.650;2023-06-01T02:25:30;97997.20;;;6.54
47484;BMP280;54076;50.322;18.650;2023-06-01T02:30:31;97991.50;;;6.38
47484;BMP280;54076;50.322;18.650;2023-06-01T02:35:32;97991.32;;;6.28
47484;BMP280;54076;50.322;18.650;2023-06-01T02:40:33;97986.89;;;6.19
47484;BMP280;54076;50.322;18.650;2023-06-01T02:45:34;97981.92;;;6.21
47484;BMP280;54076;50.322;18.650;2023-06-01T02:50:35;97976.16;;;6.18
47484;BMP280;54076;50.322;18.650;2023-06-01T02:55:37;97974.91;;;5.95
47484;BMP280;54076;50.322;18.650;2023-06-01T03:00:38;97976.05;;;5.99
47484;BMP280;54076;50.322;18.650;2023-06-01T03:05:39;97974.06;;;5.92
47484;BMP280;54076;50.322;18.650;2023-06-01T03:10:40;97964.87;;;5.69
47484;BMP280;54076;50.322;18.650;2023-06-01T03:15:41;97970.88;;;5.66
47484;BMP280;54076;50.322;18.650;2023-06-01T03:20:42;97974.51;;;5.76
47484;BMP280;54076;50.322;18.650;2023-06-01T03:25:43;97975.52;;;5.76
47484;BMP280;54076;50.322;18.650;2023-06-01T03:30:44;97975.90;;;5.87
47484;BMP280;54076;50.322;18.650;2023-06-01T03:35:46;97972.80;;;5.76
47484;BMP280;54076;50.322;18.650;2023-06-01T03:40:47;97969.20;;;5.76
47484;BMP280;54076;50.322;18.650;2023-06-01T03:45:48;97968.02;;;6.01
47484;BMP280;54076;50.322;18.650;2023-06-01T03:50:49;97964.20;;;6.09
47484;BMP280;54076;50.322;18.650;2023-06-01T03:55:51;97968.71;;;6.01
47484;BMP280;54076;50.322;18.650;2023-06-01T04:00:53;97973.89;;;6.17
47484;BMP280;54076;50.322;18.650;2023-06-01T04:05:55;97970.20;;;6.30
47484;BMP280;54076;50.322;18.650;2023-06-01T04:11:00;97968.73;;;6.44
47484;BMP280;54076;50.322;18.650;2023-06-01T04:16:01;97972.53;;;6.67
47484;BMP280;54076;50.322;18.650;2023-06-01T04:21:03;97969.53;;;6.87
47484;BMP280;54076;50.322;18.650;2023-06-01T04:26:04;97969.20;;;6.90
47484;BMP280;54076;50.322;18.650;2023-06-01T04:31:05;97969.33;;;7.21
47484;BMP280;54076;50.322;18.650;2023-06-01T04:36:08;97966.11;;;7.31
47484;BMP280;54076;50.322;18.650;2023-06-01T04:41:10;97967.27;;;7.48
47484;BMP280;54076;50.322;18.650;2023-06-01T04:46:11;97965.61;;;7.83
47484;BMP280;54076;50.322;18.650;2023-06-01T04:51:14;97964.11;;;8.10
47484;BMP280;54076;50.322;18.650;2023-06-01T04:56:22;97959.61;;;8.44
47484;BMP280;54076;50.322;18.650;2023-06-01T05:01:29;97958.64;;;8.57
47484;BMP280;54076;50.322;18.650;2023-06-01T05:06:32;97954.95;;;8.89
47484;BMP280;54076;50.322;18.650;2023-06-01T05:11:33;97957.61;;;9.13
47484;BMP280;54076;50.322;18.650;2023-06-01T05:16:34;97956.73;;;9.26
47484;BMP280;54076;50.322;18.650;2023-06-01T05:21:35;97947.94;;;9.56
47484;BMP280;54076;50.322;18.650;2023-06-01T05:26:36;97946.52;;;9.72
47484;BMP280;54076;50.322;18.650;2023-06-01T05:31:38;97948.19;;;9.94
47484;BMP280;54076;50.322;18.650;2023-06-01T05:36:39;97939.65;;;10.10
47484;BMP280;54076;50.322;18.650;2023-06-01T05:41:40;97941.67;;;10.45
47484;BMP280;54076;50.322;18.650;2023-06-01T05:46:41;97943.45;;;10.65
47484;BMP280;54076;50.322;18.650;2023-06-01T05:51:42;97943.16;;;10.88
47484;BMP280;54076;50.322;18.650;2023-06-01T05:56:44;97943.25;;;11.15
47484;BMP280;54076;50.322;18.650;2023-06-01T06:01:45;97942.16;;;11.43
47484;BMP280;54076;50.322;18.650;2023-06-01T06:06:46;97941.63;;;11.54
47484;BMP280;54076;50.322;18.650;2023-06-01T06:11:47;97939.45;;;11.72
47484;BMP280;54076;50.322;18.650;2023-06-01T06:16:49;97938.86;;;11.99
47484;BMP280;54076;50.322;18.650;2023-06-01T06:21:50;97942.38;;;12.22
47484;BMP280;54076;50.322;18.650;2023-06-01T06:26:51;97945.55;;;12.55
47484;BMP280;54076;50.322;18.650;2023-06-01T06:31:53;97948.29;;;12.70
47484;BMP280;54076;50.322;18.650;2023-06-01T06:36:54;97945.16;;;13.00
47484;BMP280;54076;50.322;18.650;2023-06-01T06:41:55;97940.19;;;13.15
47484;BMP280;54076;50.322;18.650;2023-06-01T06:46:58;97942.77;;;13.30
47484;BMP280;54076;50.322;18.650;2023-06-01T06:52:01;97941.50;;;13.41
47484;BMP280;54076;50.322;18.650;2023-06-01T06:57:02;97941.08;;;13.37
47484;BMP280;54076;50.322;18.650;2023-06-01T07:02:04;97942.89;;;13.60
47484;BMP280;54076;50.322;18.650;2023-06-01T07:07:05;97943.02;;;13.75
47484;BMP280;54076;50.322;18.650;2023-06-01T07:12:07;97930.41;;;13.96
47484;BMP280;54076;50.322;18.650;2023-06-01T07:17:08;97926.46;;;13.98
47484;BMP280;54076;50.322;18.650;2023-06-01T07:22:10;97924.23;;;14.22
47484;BMP280;54076;50.322;18.650;2023-06-01T07:27:10;97921.96;;;14.37
47484;BMP280;54076;50.322;18.650;2023-06-01T07:32:12;97917.77;;;14.50
47484;BMP280;54076;50.322;18.650;2023-06-01T07:37:13;97919.85;;;14.79
47484;BMP280;54076;50.322;18.650;2023-06-01T07:42:14;97921.23;;;14.77
47484;BMP280;54076;50.322;18.650;2023-06-01T07:47:16;97919.30;;;14.95
47484;BMP280;54076;50.322;18.650;2023-06-01T07:52:17;97911.35;;;15.09
47484;BMP280;54076;50.322;18.650;2023-06-01T07:57:18;97913.20;;;15.34
47484;BMP280;54076;50.322;18.650;2023-06-01T08:02:19;97911.95;;;15.33
47484;BMP280;54076;50.322;18.650;2023-06-01T08:07:21;97916.84;;;15.57
47484;BMP280;54076;50.322;18.650;2023-06-01T08:12:23;97917.02;;;15.69
47484;BMP280;54076;50.322;18.650;2023-06-01T08:17:26;97917.13;;;15.77
47484;BMP280;54076;50.322;18.650;2023-06-01T08:22:27;97913.56;;;15.93
47484;BMP280;54076;50.322;18.650;2023-06-01T08:27:29;97910.63;;;16.22
47484;BMP280;54076;50.322;18.650;2023-06-01T08:32:30;97899.48;;;16.26
47484;BMP280;54076;50.322;18.650;2023-06-01T08:37:32;97899.02;;;16.40
47484;BMP280;54076;50.322;18.650;2023-06-01T08:47:48;97888.18;;;16.73
47484;BMP280;54076;50.322;18.650;2023-06-01T08:52:52;97880.85;;;16.85
47484;BMP280;54076;50.322;18.650;2023-06-01T08:57:57;97875.85;;;16.88
47484;BMP280;54076;50.322;18.650;2023-06-01T09:02:59;97870.01;;;16.92
47484;BMP280;54076;50.322;18.650;2023-06-01T09:08:01;97867.96;;;17.16
47484;BMP280;54076;50.322;18.650;2023-06-01T09:13:03;97868.13;;;17.36
47484;BMP280;54076;50.322;18.650;2023-06-01T09:18:07;97860.73;;;17.31
47484;BMP280;54076;50.322;18.650;2023-06-01T09:23:11;97851.51;;;17.15
47484;BMP280;54076;50.322;18.650;2023-06-01T09:28:12;97852.76;;;17.69
47484;BMP280;54076;50.322;18.650;2023-06-01T09:33:16;97852.54;;;17.71
47484;BMP280;54076;50.322;18.650;2023-06-01T09:49:39;97841.37;;;18.11
47484;BMP280;54076;50.322;18.650;2023-06-01T09:54:49;97838.25;;;18.17
47484;BMP280;54076;50.322;18.650;2023-06-01T09:59:50;97836.45;;;18.39
47484;BMP280;54076;50.322;18.650;2023-06-01T10:04:56;97838.23;;;18.78
47484;BMP280;54076;50.322;18.650;2023-06-01T10:10:00;97845.55;;;19.63
47484;BMP280;54076;50.322;18.650;2023-06-01T10:15:05;97841.84;;;20.50
47484;BMP280;54076;50.322;18.650;2023-06-01T10:20:07;97842.15;;;20.58
47484;BMP280;54076;50.322;18.650;2023-06-01T10:25:13;97843.31;;;20.99
47484;BMP280;54076;50.322;18.650;2023-06-01T10:30:16;97849.98;;;21.23
47484;BMP280;54076;50.322;18.650;2023-06-01T10:40:27;97841.40;;;22.28
47484;BMP280;54076;50.322;18.650;2023-06-01T10:50:42;97835.42;;;22.13
47484;BMP280;54076;50.322;18.650;2023-06-01T10:55:43;97825.86;;;22.60
47484;BMP280;54076;50.322;18.650;2023-06-01T11:00:44;97820.91;;;22.41
47484;BMP280;54076;50.322;18.650;2023-06-01T11:05:51;97830.70;;;23.26
47484;BMP280;54076;50.322;18.650;2023-06-01T11:21:17;97799.08;;;23.19
47484;BMP280;54076;50.322;18.650;2023-06-01T11:26:21;97805.90;;;23.50
47484;BMP280;54076;50.322;18.650;2023-06-01T11:31:23;97805.39;;;23.00
47484;BMP280;54076;50.322;18.650;2023-06-01T11:36:26;97804.02;;;23.89
47484;BMP280;54076;50.322;18.650;2023-06-01T11:41:27;97798.81;;;24.92
47484;BMP280;54076;50.322;18.650;2023-06-01T11:46:28;97791.06;;;24.71
47484;BMP280;54076;50.322;18.650;2023-06-01T11:51:31;97786.50;;;24.54
47484;BMP280;54076;50.322;18.650;2023-06-01T11:56:35;97781.63;;;24.28
47484;BMP280;54076;50.322;18.650;2023-06-01T12:01:46;97777.39;;;24.91
47484;BMP280;54076;50.322;18.650;2023-06-01T12:06:47;97776.70;;;24.63
47484;BMP280;54076;50.322;18.650;2023-06-01T12:11:50;97772.59;;;24.32
47484;BMP280;54076;50.322;18.650;2023-06-01T12:16:59;97762.86;;;24.66
47484;BMP280;54076;50.322;18.650;2023-06-01T12:22:04;97759.02;;;25.22
47484;BMP280;54076;50.322;18.650;2023-06-01T12:27:16;97754.09;;;24.86
47484;BMP280;54076;50.322;18.650;2023-06-01T12:32:20;97741.33;;;24.36
47484;BMP280;54076;50.322;18.650;2023-06-01T12:37:23;97750.34;;;24.65
47484;BMP280;54076;50.322;18.650;2023-06-01T12:42:38;97744.69;;;24.70
47484;BMP280;54076;50.322;18.650;2023-06-01T12:47:41;97749.61;;;24.71
47484;BMP280;54076;50.322;18.650;2023-06-01T12:52:45;97731.97;;;23.76
47484;BMP280;54076;50.322;18.650;2023-06-01T12:57:54;97732.27;;;23.82
47484;BMP280;54076;50.322;18.650;2023-06-01T13:02:56;97726.78;;;23.82
47484;BMP280;54076;50.322;18.650;2023-06-01T13:07:57;97725.23;;;24.23
47484;BMP280;54076;50.322;18.650;2023-06-01T13:12:59;97711.83;;;24.77
47484;BMP280;54076;50.322;18.650;2023-06-01T13:18:01;97709.91;;;24.59
47484;BMP280;54076;50.322;18.650;2023-06-01T13:23:02;97706.43;;;24.17
47484;BMP280;54076;50.322;18.650;2023-06-01T13:28:07;97703.50;;;24.33
47484;BMP280;54076;50.322;18.650;2023-06-01T13:33:08;97703.03;;;23.86
47484;BMP280;54076;50.322;18.650;2023-06-01T13:38:09;97690.88;;;23.13
47484;BMP280;54076;50.322;18.650;2023-06-01T13:43:10;97688.50;;;22.17
47484;BMP280;54076;50.322;18.650;2023-06-01T13:48:11;97682.02;;;22.51
47484;BMP280;54076;50.322;18.650;2023-06-01T13:53:12;97679.59;;;22.73
47484;BMP280;54076;50.322;18.650;2023-06-01T13:58:13;97668.02;;;22.76
47484;BMP280;54076;50.322;18.650;2023-06-01T14:03:14;97662.20;;;22.86
47484;BMP280;54076;50.322;18.650;2023-06-01T14:08:16;97653.98;;;22.77
47484;BMP280;54076;50.322;18.650;2023-06-01T14:13:17;97646.37;;;22.54
47484;BMP280;54076;50.322;18.650;2023-06-01T14:18:18;97641.20;;;21.75
47484;BMP280;54076;50.322;18.650;2023-06-01T14:23:18;97632.77;;;21.64
47484;BMP280;54076;50.322;18.650;2023-06-01T14:28:20;97640.28;;;22.55
47484;BMP280;54076;50.322;18.650;2023-06-01T14:33:21;97641.45;;;22.82
47484;BMP280;54076;50.322;18.650;2023-06-01T14:38:22;97643.06;;;22.94
47484;BMP280;54076;50.322;18.650;2023-06-01T14:43:23;97633.98;;;23.24
47484;BMP280;54076;50.322;18.650;2023-06-01T14:48:24;97624.33;;;22.36
47484;BMP280;54076;50.322;18.650;2023-06-01T14:53:25;97623.09;;;23.24
47484;BMP280;54076;50.322;18.650;2023-06-01T14:58:26;97624.94;;;23.45
47484;BMP280;54076;50.322;18.650;2023-06-01T15:03:27;97625.55;;;23.60
47484;BMP280;54076;50.322;18.650;2023-06-01T15:08:28;97625.63;;;24.50
47484;BMP280;54076;50.322;18.650;2023-06-01T15:13:29;97623.89;;;24.77
47484;BMP280;54076;50.322;18.650;2023-06-01T15:18:30;97611.95;;;24.14
47484;BMP280;54076;50.322;18.650;2023-06-01T15:23:31;97613.86;;;24.32
47484;BMP280;54076;50.322;18.650;2023-06-01T15:28:32;97614.16;;;25.65
47484;BMP280;54076;50.322;18.650;2023-06-01T15:33:33;97609.52;;;25.68
47484;BMP280;54076;50.322;18.650;2023-06-01T15:38:34;97602.17;;;25.86
47484;BMP280;54076;50.322;18.650;2023-06-01T15:43:36;97588.99;;;24.38
47484;BMP280;54076;50.322;18.650;2023-06-01T15:48:37;97592.79;;;24.77
47484;BMP280;54076;50.322;18.650;2023-06-01T15:53:40;97596.06;;;26.13
47484;BMP280;54076;50.322;18.650;2023-06-01T15:58:41;97588.27;;;26.35
47484;BMP280;54076;50.322;18.650;2023-06-01T16:03:43;97594.34;;;27.80
47484;BMP280;54076;50.322;18.650;2023-06-01T16:08:44;97592.39;;;28.01
47484;BMP280;54076;50.322;18.650;2023-06-01T16:13:46;97580.49;;;27.68
47484;BMP280;54076;50.322;18.650;2023-06-01T16:18:46;97569.69;;;25.85
47484;BMP280;54076;50.322;18.650;2023-06-01T16:23:48;97579.70;;;26.89
47484;BMP280;54076;50.322;18.650;2023-06-01T16:28:49;97583.65;;;28.10
47484;BMP280;54076;50.322;18.650;2023-06-01T16:33:50;97583.23;;;28.81
47484;BMP280;54076;50.322;18.650;2023-06-01T16:38:51;97585.73;;;29.24
47484;BMP280;54076;50.322;18.650;2023-06-01T16:43:52;97581.36;;;29.47
47484;BMP280;54076;50.322;18.650;2023-06-01T16:48:53;97574.90;;;29.66
47484;BMP280;54076;50.322;18.650;2023-06-01T16:53:54;97578.86;;;29.71
47484;BMP280;54076;50.322;18.650;2023-06-01T16:58:55;97571.21;;;29.69
47484;BMP280;54076;50.322;18.650;2023-06-01T17:03:56;97564.33;;;29.82
47484;BMP280;54076;50.322;18.650;2023-06-01T17:08:57;97555.88;;;29.54
47484;BMP280;54076;50.322;18.650;2023-06-01T17:13:59;97553.54;;;29.66
47484;BMP280;54076;50.322;18.650;2023-06-01T17:19:00;97556.55;;;30.14
47484;BMP280;54076;50.322;18.650;2023-06-01T17:24:02;97554.20;;;29.63
47484;BMP280;54076;50.322;18.650;2023-06-01T17:29:04;97549.70;;;28.87
47484;BMP280;54076;50.322;18.650;2023-06-01T17:34:06;97542.85;;;28.55
47484;BMP280;54076;50.322;18.650;2023-06-01T17:39:07;97544.54;;;28.57
47484;BMP280;54076;50.322;18.650;2023-06-01T17:44:09;97537.61;;;28.45
47484;BMP280;54076;50.322;18.650;2023-06-01T17:49:11;97535.45;;;28.11
47484;BMP280;54076;50.322;18.650;2023-06-01T17:54:12;97526.10;;;26.86
47484;BMP280;54076;50.322;18.650;2023-06-01T17:59:13;97529.55;;;27.11
47484;BMP280;54076;50.322;18.650;2023-06-01T18:04:14;97529.04;;;27.05
47484;BMP280;54076;50.322;18.650;2023-06-01T18:09:16;97525.17;;;26.38
47484;BMP280;54076;50.322;18.650;2023-06-01T18:14:17;97519.89;;;25.44
47484;BMP280;54076;50.322;18.650;2023-06-01T18:19:18;97510.91;;;24.70
47484;BMP280;54076;50.322;18.650;2023-06-01T18:24:21;97501.42;;;23.36
47484;BMP280;54076;50.322;18.650;2023-06-01T18:29:22;97491.31;;;22.32
47484;BMP280;54076;50.322;18.650;2023-06-01T18:34:23;97484.73;;;21.38
47484;BMP280;54076;50.322;18.650;2023-06-01T18:39:24;97477.64;;;20.05
47484;BMP280;54076;50.322;18.650;2023-06-01T18:44:25;97471.95;;;19.39
47484;BMP280;54076;50.322;18.650;2023-06-01T18:49:26;97470.94;;;18.96
47484;BMP280;54076;50.322;18.650;2023-06-01T18:54:27;97472.33;;;18.52
47484;BMP280;54076;50.322;18.650;2023-06-01T18:59:29;97469.75;;;18.09
47484;BMP280;54076;50.322;18.650;2023-06-01T19:04:30;97477.28;;;17.37
47484;BMP280;54076;50.322;18.650;2023-06-01T19:09:36;97473.39;;;16.71
47484;BMP280;54076;50.322;18.650;2023-06-01T19:14:40;97475.94;;;16.35
47484;BMP280;54076;50.322;18.650;2023-06-01T19:19:42;97476.01;;;16.04
47484;BMP280;54076;50.322;18.650;2023-06-01T19:24:43;97477.29;;;15.91
47484;BMP280;54076;50.322;18.650;2023-06-01T19:29:44;97473.26;;;15.76
47484;BMP280;54076;50.322;18.650;2023-06-01T19:34:45;97477.86;;;15.46
47484;BMP280;54076;50.322;18.650;2023-06-01T19:39:46;97482.76;;;15.26
47484;BMP280;54076;50.322;18.650;2023-06-01T19:44:47;97483.67;;;15.02
47484;BMP280;54076;50.322;18.650;2023-06-01T19:49:48;97483.34;;;14.93
47484;BMP280;54076;50.322;18.650;2023-06-01T19:54:49;97476.95;;;14.87
47484;BMP280;54076;50.322;18.650;2023-06-01T19:59:54;97472.77;;;14.67
47484;BMP280;54076;50.322;18.650;2023-06-01T20:04:55;97477.09;;;14.53
47484;BMP280;54076;50.322;18.650;2023-06-01T20:09:56;97483.26;;;14.32
47484;BMP280;54076;50.322;18.650;2023-06-01T20:14:58;97480.90;;;14.12
47484;BMP280;54076;50.322;18.650;2023-06-01T20:19:59;97482.55;;;14.10
47484;BMP280;54076;50.322;18.650;2023-06-01T20:25:04;97481.42;;;13.93
47484;BMP280;54076;50.322;18.650;2023-06-01T20:35:40;97481.31;;;13.60
47484;BMP280;54076;50.322;18.650;2023-06-01T20:46:02;97481.85;;;13.42
47484;BMP280;54076;50.322;18.650;2023-06-01T20:51:03;97482.88;;;13.31
47484;BMP280;54076;50.322;18.650;2023-06-01T20:56:04;97487.52;;;13.24
47484;BMP280;54076;50.322;18.650;2023-06-01T21:01:06;97486.69;;;13.12
47484;BMP280;54076;50.322;18.650;2023-06-01T21:06:07;97491.84;;;13.13
47484;BMP280;54076;50.322;18.650;2023-06-01T21:11:08;97498.91;;;13.23
47484;BMP280;54076;50.322;18.650;2023-06-01T21:16:09;97492.45;;;13.60
47484;BMP280;54076;50.322;18.650;2023-06-01T21:21:10;97490.52;;;13.74
47484;BMP280;54076;50.322;18.650;2023-06-01T21:26:13;97491.40;;;13.65
47484;BMP280;54076;50.322;18.650;2023-06-01T21:31:15;97495.98;;;13.26
47484;BMP280;54076;50.322;18.650;2023-06-01T21:36:16;97490.68;;;12.95
47484;BMP280;54076;50.322;18.650;2023-06-01T21:41:18;97487.70;;;12.78
47484;BMP280;54076;50.322;18.650;2023-06-01T21:46:19;97488.89;;;13.01
47484;BMP280;54076;50.322;18.650;2023-06-01T21:51:20;97486.35;;;12.91
47484;BMP280;54076;50.322;18.650;2023-06-01T21:56:21;97489.30;;;12.81
47484;BMP280;54076;50.322;18.650;2023-06-01T22:01:22;97486.83;;;12.71
47484;BMP280;54076;50.322;18.650;2023-06-01T22:06:24;97489.75;;;12.83
47484;BMP280;54076;50.322;18.650;2023-06-01T22:11:25;97497.43;;;12.86
47484;BMP280;54076;50.322;18.650;2023-06-01T22:16:26;97501.95;;;12.65
47484;BMP280;54076;50.322;18.650;2023-06-01T22:21:27;97507.55;;;12.75
47484;BMP280;54076;50.322;18.650;2023-06-01T22:26:28;97509.14;;;12.80
47484;BMP280;54076;50.322;18.650;2023-06-01T22:31:29;97513.59;;;12.81
47484;BMP280;54076;50.322;18.650;2023-06-01T22:36:30;97511.27;;;12.63
47484;BMP280;54076;50.322;18.650;2023-06-01T22:41:31;97519.45;;;12.46
47484;BMP280;54076;50.322;18.650;2023-06-01T22:46:32;97518.61;;;12.29
47484;BMP280;54076;50.322;18.650;2023-06-01T22:51:33;97522.32;;;12.14
47484;BMP280;54076;50.322;18.650;2023-06-01T22:56:35;97523.25;;;11.97
47484;BMP280;54076;50.322;18.650;2023-06-01T23:01:36;97525.13;;;11.76
47484;BMP280;54076;50.322;18.650;2023-06-01T23:06:37;97520.95;;;11.73
47484;BMP280;54076;50.322;18.650;2023-06-01T23:11:39;97527.36;;;11.49
47484;BMP280;54076;50.322;18.650;2023-06-01T23:16:41;97521.33;;;11.35
47484;BMP280;54076;50.322;18.650;2023-06-01T23:21:46;97523.73;;;11.26
47484;BMP280;54076;50.322;18.650;2023-06-01T23:26:48;97525.85;;;11.20
47484;BMP280;54076;50.322;18.650;2023-06-01T23:31:49;97525.55;;;11.07
47484;BMP280;54076;50.322;18.650;2023-06-01T23:36:51;97527.16;;;10.96
47484;BMP280;54076;50.322;18.650;2023-06-01T23:41:53;97525.59;;;10.88
47484;BMP280;54076;50.322;18.650;2023-06-01T23:46:54;97530.39;;;10.82
47484;BMP280;54076;50.322;18.650;2023-06-01T23:51:55;97530.80;;;10.85
47484;BMP280;54076;50.322;18.650;2023-06-01T23:56:56;97528.79;;;10.78
